sensor_id;sensor_type;location;lat;lon;timestamp;temperature;humidity
30148;DHT22;16960;49.404;8.248;2023-04-24T00:02:02;22.30;40.50
30148;DHT22;16960;49.404;8.248;2023-04-24T00:04:29;22.30;40.50
30148;DHT22;16960;49.404;8.248;2023-04-24T00:06:57;22.20;40.50
30148;DHT22;16960;49.404;8.248;2023-04-24T00:09:27;22.20;40.50
30148;DHT22;16960;49.404;8.248;2023-04-24T00:11:54;22.10;40.50
30148;DHT22;16960;49.404;8.248;2023-04-24T00:14:21;22.10;40.60
30148;DHT22;16960;49.404;8.248;2023-04-24T00:16:48;22.10;40.70
30148;DHT22;16960;49.404;8.248;2023-04-24T00:19:15;22.00;40.60
30148;DHT22;16960;49.404;8.248;2023-04-24T00:21:42;22.00;40.70
30148;DHT22;16960;49.404;8.248;2023-04-24T00:24:09;22.00;40.70
30148;DHT22;16960;49.404;8.248;2023-04-24T00:26:37;22.00;40.80
30148;DHT22;16960;49.404;8.248;2023-04-24T00:29:04;22.00;40.80
30148;DHT22;16960;49.404;8.248;2023-04-24T00:31:31;21.90;40.90
30148;DHT22;16960;49.404;8.248;2023-04-24T00:34:00;21.90;41.00
30148;DHT22;16960;49.404;8.248;2023-04-24T00:36:28;21.90;41.00
30148;DHT22;16960;49.404;8.248;2023-04-24T00:38:56;21.90;41.00
30148;DHT22;16960;49.404;8.248;2023-04-24T00:41:24;21.80;41.00
30148;DHT22;16960;49.404;8.248;2023-04-24T00:43:53;21.80;41.00
30148;DHT22;16960;49.404;8.248;2023-04-24T00:46:21;21.80;41.10
30148;DHT22;16960;49.404;8.248;2023-04-24T00:48:48;21.80;41.10
30148;DHT22;16960;49.404;8.248;2023-04-24T00:51:14;21.80;41.10
30148;DHT22;16960;49.404;8.248;2023-04-24T00:53:41;21.80;41.20
30148;DHT22;16960;49.404;8.248;2023-04-24T00:56:09;21.70;41.30
30148;DHT22;16960;49.404;8.248;2023-04-24T00:58:36;21.70;41.30
30148;DHT22;16960;49.404;8.248;2023-04-24T01:01:04;21.70;41.30
30148;DHT22;16960;49.404;8.248;2023-04-24T01:03:33;21.70;41.30
30148;DHT22;16960;49.404;8.248;2023-04-24T01:06:03;21.70;41.40
30148;DHT22;16960;49.404;8.248;2023-04-24T01:08:30;21.70;41.40
30148;DHT22;16960;49.404;8.248;2023-04-24T01:10:58;21.70;42.20
30148;DHT22;16960;49.404;8.248;2023-04-24T01:13:25;21.60;41.40
30148;DHT22;16960;49.404;8.248;2023-04-24T01:15:51;21.60;41.50
30148;DHT22;16960;49.404;8.248;2023-04-24T01:18:20;21.60;41.40
30148;DHT22;16960;49.404;8.248;2023-04-24T01:20:49;21.60;41.50
30148;DHT22;16960;49.404;8.248;2023-04-24T01:23:19;21.60;41.50
30148;DHT22;16960;49.404;8.248;2023-04-24T01:25:46;21.60;41.60
30148;DHT22;16960;49.404;8.248;2023-04-24T01:28:13;21.60;41.60
30148;DHT22;16960;49.404;8.248;2023-04-24T01:30:41;21.50;41.70
30148;DHT22;16960;49.404;8.248;2023-04-24T01:33:08;21.60;41.70
30148;DHT22;16960;49.404;8.248;2023-04-24T01:35:36;21.50;41.60
30148;DHT22;16960;49.404;8.248;2023-04-24T01:38:03;21.50;41.70
30148;DHT22;16960;49.404;8.248;2023-04-24T01:40:32;21.50;41.70
30148;DHT22;16960;49.404;8.248;2023-04-24T01:43:00;21.50;41.60
30148;DHT22;16960;49.404;8.248;2023-04-24T01:45:27;21.50;41.70
30148;DHT22;16960;49.404;8.248;2023-04-24T01:47:53;21.50;41.70
30148;DHT22;16960;49.404;8.248;2023-04-24T01:50:20;21.50;41.70
30148;DHT22;16960;49.404;8.248;2023-04-24T01:52:47;21.50;41.60
30148;DHT22;16960;49.404;8.248;2023-04-24T01:55:14;21.50;41.70
30148;DHT22;16960;49.404;8.248;2023-04-24T01:57:42;21.50;41.80
30148;DHT22;16960;49.404;8.248;2023-04-24T02:00:10;21.40;41.60
30148;DHT22;16960;49.404;8.248;2023-04-24T02:02:39;21.40;41.50
30148;DHT22;16960;49.404;8.248;2023-04-24T02:05:06;21.40;41.60
30148;DHT22;16960;49.404;8.248;2023-04-24T02:07:34;21.40;41.60
30148;DHT22;16960;49.404;8.248;2023-04-24T02:10:00;21.40;41.60
30148;DHT22;16960;49.404;8.248;2023-04-24T02:12:27;21.40;41.80
30148;DHT22;16960;49.404;8.248;2023-04-24T02:14:56;21.40;41.70
30148;DHT22;16960;49.404;8.248;2023-04-24T02:17:23;21.30;41.60
30148;DHT22;16960;49.404;8.248;2023-04-24T02:19:50;21.40;41.70
30148;DHT22;16960;49.404;8.248;2023-04-24T02:22:17;21.40;41.80
30148;DHT22;16960;49.404;8.248;2023-04-24T02:24:44;21.30;41.70
30148;DHT22;16960;49.404;8.248;2023-04-24T02:27:11;21.30;41.80
30148;DHT22;16960;49.404;8.248;2023-04-24T02:29:38;21.30;41.90
30148;DHT22;16960;49.404;8.248;2023-04-24T02:32:06;21.30;41.80
30148;DHT22;16960;49.404;8.248;2023-04-24T02:34:36;21.30;41.70
30148;DHT22;16960;49.404;8.248;2023-04-24T02:37:04;21.30;41.70
30148;DHT22;16960;49.404;8.248;2023-04-24T02:39:30;21.20;41.50
30148;DHT22;16960;49.404;8.248;2023-04-24T02:41:57;21.30;41.60
30148;DHT22;16960;49.404;8.248;2023-04-24T02:44:25;21.20;41.60
30148;DHT22;16960;49.404;8.248;2023-04-24T02:46:52;21.20;42.50
30148;DHT22;16960;49.404;8.248;2023-04-24T02:49:20;21.20;41.70
30148;DHT22;16960;49.404;8.248;2023-04-24T02:51:47;21.20;41.60
30148;DHT22;16960;49.404;8.248;2023-04-24T02:54:14;21.20;41.80
30148;DHT22;16960;49.404;8.248;2023-04-24T02:56:41;21.20;41.70
30148;DHT22;16960;49.404;8.248;2023-04-24T02:59:09;21.20;41.70
30148;DHT22;16960;49.404;8.248;2023-04-24T03:01:36;21.20;41.80
30148;DHT22;16960;49.404;8.248;2023-04-24T03:04:03;21.20;41.60
30148;DHT22;16960;49.404;8.248;2023-04-24T03:06:31;21.20;41.70
30148;DHT22;16960;49.404;8.248;2023-04-24T03:09:01;21.10;41.60
30148;DHT22;16960;49.404;8.248;2023-04-24T03:11:29;21.10;41.70
30148;DHT22;16960;49.404;8.248;2023-04-24T03:13:55;21.10;41.70
30148;DHT22;16960;49.404;8.248;2023-04-24T03:16:22;21.10;41.90
30148;DHT22;16960;49.404;8.248;2023-04-24T03:18:49;21.10;41.80
30148;DHT22;16960;49.404;8.248;2023-04-24T03:21:16;21.10;41.90
30148;DHT22;16960;49.404;8.248;2023-04-24T03:23:44;21.10;41.90
30148;DHT22;16960;49.404;8.248;2023-04-24T03:26:11;21.00;41.80
30148;DHT22;16960;49.404;8.248;2023-04-24T03:28:38;21.00;41.70
30148;DHT22;16960;49.404;8.248;2023-04-24T03:31:05;21.10;41.90
30148;DHT22;16960;49.404;8.248;2023-04-24T03:33:32;21.00;41.80
30148;DHT22;16960;49.404;8.248;2023-04-24T03:35:59;21.00;41.80
30148;DHT22;16960;49.404;8.248;2023-04-24T03:38:26;21.00;41.80
30148;DHT22;16960;49.404;8.248;2023-04-24T03:40:54;21.00;41.80
30148;DHT22;16960;49.404;8.248;2023-04-24T03:43:21;21.00;41.80
30148;DHT22;16960;49.404;8.248;2023-04-24T03:45:48;21.00;41.80
30148;DHT22;16960;49.404;8.248;2023-04-24T03:48:15;21.00;41.80
30148;DHT22;16960;49.404;8.248;2023-04-24T03:50:42;21.00;41.80
30148;DHT22;16960;49.404;8.248;2023-04-24T03:53:09;21.00;41.70
30148;DHT22;16960;49.404;8.248;2023-04-24T03:55:35;20.90;41.90
30148;DHT22;16960;49.404;8.248;2023-04-24T03:58:04;20.90;41.80
30148;DHT22;16960;49.404;8.248;2023-04-24T04:00:31;20.90;41.90
30148;DHT22;16960;49.404;8.248;2023-04-24T04:02:59;20.90;41.80
30148;DHT22;16960;49.404;8.248;2023-04-24T04:05:25;20.90;42.00
30148;DHT22;16960;49.404;8.248;2023-04-24T04:07:52;20.90;41.80
30148;DHT22;16960;49.404;8.248;2023-04-24T04:10:19;20.90;42.00
30148;DHT22;16960;49.404;8.248;2023-04-24T04:12:46;20.90;41.90
30148;DHT22;16960;49.404;8.248;2023-04-24T04:15:15;20.90;42.00
30148;DHT22;16960;49.404;8.248;2023-04-24T04:17:42;20.90;42.10
30148;DHT22;16960;49.404;8.248;2023-04-24T04:20:09;20.90;42.20
30148;DHT22;16960;49.404;8.248;2023-04-24T04:22:36;20.90;42.10
30148;DHT22;16960;49.404;8.248;2023-04-24T04:25:03;20.90;42.10
30148;DHT22;16960;49.404;8.248;2023-04-24T04:27:31;20.90;42.10
30148;DHT22;16960;49.404;8.248;2023-04-24T04:29:58;20.90;42.00
30148;DHT22;16960;49.404;8.248;2023-04-24T04:32:31;20.90;42.10
30148;DHT22;16960;49.404;8.248;2023-04-24T04:34:58;20.90;42.10
30148;DHT22;16960;49.404;8.248;2023-04-24T04:37:28;20.90;42.10
30148;DHT22;16960;49.404;8.248;2023-04-24T04:39:55;20.80;41.90
30148;DHT22;16960;49.404;8.248;2023-04-24T04:42:23;20.90;42.00
30148;DHT22;16960;49.404;8.248;2023-04-24T04:44:50;20.80;41.80
30148;DHT22;16960;49.404;8.248;2023-04-24T04:47:17;20.80;41.90
30148;DHT22;16960;49.404;8.248;2023-04-24T04:49:46;20.80;41.90
30148;DHT22;16960;49.404;8.248;2023-04-24T04:52:13;20.80;41.80
30148;DHT22;16960;49.404;8.248;2023-04-24T04:54:42;20.90;41.90
30148;DHT22;16960;49.404;8.248;2023-04-24T04:57:10;20.90;42.00
30148;DHT22;16960;49.404;8.248;2023-04-24T04:59:37;20.80;41.90
30148;DHT22;16960;49.404;8.248;2023-04-24T05:02:04;20.80;41.90
30148;DHT22;16960;49.404;8.248;2023-04-24T05:04:31;20.80;42.00
30148;DHT22;16960;49.404;8.248;2023-04-24T05:06:59;20.80;41.90
30148;DHT22;16960;49.404;8.248;2023-04-24T05:09:26;20.80;41.90
30148;DHT22;16960;49.404;8.248;2023-04-24T05:11:55;20.80;41.90
30148;DHT22;16960;49.404;8.248;2023-04-24T05:14:22;20.80;41.80
30148;DHT22;16960;49.404;8.248;2023-04-24T05:16:48;20.80;41.70
30148;DHT22;16960;49.404;8.248;2023-04-24T05:19:15;20.80;41.90
30148;DHT22;16960;49.404;8.248;2023-04-24T05:21:42;20.80;41.90
30148;DHT22;16960;49.404;8.248;2023-04-24T05:24:11;20.80;41.90
30148;DHT22;16960;49.404;8.248;2023-04-24T05:26:37;20.80;41.60
30148;DHT22;16960;49.404;8.248;2023-04-24T05:29:04;20.80;41.50
30148;DHT22;16960;49.404;8.248;2023-04-24T05:31:31;20.80;41.60
30148;DHT22;16960;49.404;8.248;2023-04-24T05:33:58;20.80;41.50
30148;DHT22;16960;49.404;8.248;2023-04-24T05:36:25;20.80;41.60
30148;DHT22;16960;49.404;8.248;2023-04-24T05:38:53;20.80;41.60
30148;DHT22;16960;49.404;8.248;2023-04-24T05:41:22;20.90;41.70
30148;DHT22;16960;49.404;8.248;2023-04-24T05:43:49;20.90;41.60
30148;DHT22;16960;49.404;8.248;2023-04-24T05:46:16;20.90;41.60
30148;DHT22;16960;49.404;8.248;2023-04-24T05:48:43;20.90;41.60
30148;DHT22;16960;49.404;8.248;2023-04-24T05:51:10;20.90;41.50
30148;DHT22;16960;49.404;8.248;2023-04-24T05:53:37;21.00;41.50
30148;DHT22;16960;49.404;8.248;2023-04-24T05:56:04;21.00;41.40
30148;DHT22;16960;49.404;8.248;2023-04-24T05:58:33;21.00;41.70
30148;DHT22;16960;49.404;8.248;2023-04-24T06:01:00;21.00;41.60
30148;DHT22;16960;49.404;8.248;2023-04-24T06:03:28;21.00;41.50
30148;DHT22;16960;49.404;8.248;2023-04-24T06:05:55;21.10;41.60
30148;DHT22;16960;49.404;8.248;2023-04-24T06:08:21;21.10;41.60
30148;DHT22;16960;49.404;8.248;2023-04-24T06:10:48;21.10;41.30
30148;DHT22;16960;49.404;8.248;2023-04-24T06:13:15;21.20;41.10
30148;DHT22;16960;49.404;8.248;2023-04-24T06:15:44;21.20;41.00
30148;DHT22;16960;49.404;8.248;2023-04-24T06:18:11;21.20;40.80
30148;DHT22;16960;49.404;8.248;2023-04-24T06:20:38;21.30;40.80
30148;DHT22;16960;49.404;8.248;2023-04-24T06:23:05;21.30;40.70
30148;DHT22;16960;49.404;8.248;2023-04-24T06:25:32;21.30;40.50
30148;DHT22;16960;49.404;8.248;2023-04-24T06:27:59;21.30;40.40
30148;DHT22;16960;49.404;8.248;2023-04-24T06:30:27;21.40;40.40
30148;DHT22;16960;49.404;8.248;2023-04-24T06:32:55;21.30;40.20
30148;DHT22;16960;49.404;8.248;2023-04-24T06:35:22;21.40;40.10
30148;DHT22;16960;49.404;8.248;2023-04-24T06:37:49;21.40;40.10
30148;DHT22;16960;49.404;8.248;2023-04-24T06:40:16;21.40;40.10
30148;DHT22;16960;49.404;8.248;2023-04-24T06:42:44;21.50;40.10
30148;DHT22;16960;49.404;8.248;2023-04-24T06:45:11;21.50;39.80
30148;DHT22;16960;49.404;8.248;2023-04-24T06:47:38;21.50;39.60
30148;DHT22;16960;49.404;8.248;2023-04-24T06:50:07;21.50;39.50
30148;DHT22;16960;49.404;8.248;2023-04-24T06:52:35;21.50;39.40
30148;DHT22;16960;49.404;8.248;2023-04-24T06:55:02;21.50;39.30
30148;DHT22;16960;49.404;8.248;2023-04-24T06:57:29;21.60;39.30
30148;DHT22;16960;49.404;8.248;2023-04-24T06:59:56;21.60;39.10
30148;DHT22;16960;49.404;8.248;2023-04-24T07:02:23;21.50;38.90
30148;DHT22;16960;49.404;8.248;2023-04-24T07:04:50;21.60;38.90
30148;DHT22;16960;49.404;8.248;2023-04-24T07:07:19;21.60;38.90
30148;DHT22;16960;49.404;8.248;2023-04-24T07:09:47;21.60;38.80
30148;DHT22;16960;49.404;8.248;2023-04-24T07:12:14;21.60;38.70
30148;DHT22;16960;49.404;8.248;2023-04-24T07:14:42;21.60;38.60
30148;DHT22;16960;49.404;8.248;2023-04-24T07:17:09;21.60;38.50
30148;DHT22;16960;49.404;8.248;2023-04-24T07:19:38;21.60;38.60
30148;DHT22;16960;49.404;8.248;2023-04-24T07:22:05;21.60;38.50
30148;DHT22;16960;49.404;8.248;2023-04-24T07:24:33;21.60;38.50
30148;DHT22;16960;49.404;8.248;2023-04-24T07:27:00;21.60;38.50
30148;DHT22;16960;49.404;8.248;2023-04-24T07:29:27;21.50;38.50
30148;DHT22;16960;49.404;8.248;2023-04-24T07:31:54;21.50;38.50
30148;DHT22;16960;49.404;8.248;2023-04-24T07:34:22;21.50;38.50
30148;DHT22;16960;49.404;8.248;2023-04-24T07:36:48;21.50;38.60
30148;DHT22;16960;49.404;8.248;2023-04-24T07:39:16;21.50;38.50
30148;DHT22;16960;49.404;8.248;2023-04-24T07:41:45;21.50;38.60
30148;DHT22;16960;49.404;8.248;2023-04-24T07:44:12;21.50;38.50
30148;DHT22;16960;49.404;8.248;2023-04-24T07:46:39;21.50;38.50
30148;DHT22;16960;49.404;8.248;2023-04-24T07:49:06;21.40;38.40
30148;DHT22;16960;49.404;8.248;2023-04-24T07:51:33;21.40;38.50
30148;DHT22;16960;49.404;8.248;2023-04-24T07:54:04;21.50;38.60
30148;DHT22;16960;49.404;8.248;2023-04-24T07:56:32;21.50;38.60
30148;DHT22;16960;49.404;8.248;2023-04-24T07:59:00;21.50;38.60
30148;DHT22;16960;49.404;8.248;2023-04-24T08:01:27;21.50;38.50
30148;DHT22;16960;49.404;8.248;2023-04-24T08:03:54;21.50;38.60
30148;DHT22;16960;49.404;8.248;2023-04-24T08:06:22;21.50;38.50
30148;DHT22;16960;49.404;8.248;2023-04-24T08:08:49;21.50;38.30
30148;DHT22;16960;49.404;8.248;2023-04-24T08:11:17;21.50;38.40
30148;DHT22;16960;49.404;8.248;2023-04-24T08:13:44;21.50;38.40
30148;DHT22;16960;49.404;8.248;2023-04-24T08:16:12;21.50;38.20
30148;DHT22;16960;49.404;8.248;2023-04-24T08:18:40;21.50;38.30
30148;DHT22;16960;49.404;8.248;2023-04-24T08:21:07;21.50;38.40
30148;DHT22;16960;49.404;8.248;2023-04-24T08:23:34;21.50;38.40
30148;DHT22;16960;49.404;8.248;2023-04-24T08:26:01;21.50;38.40
30148;DHT22;16960;49.404;8.248;2023-04-24T08:28:28;21.50;38.50
30148;DHT22;16960;49.404;8.248;2023-04-24T08:30:55;21.50;38.40
30148;DHT22;16960;49.404;8.248;2023-04-24T08:33:24;21.50;38.40
30148;DHT22;16960;49.404;8.248;2023-04-24T08:35:52;21.50;38.40
30148;DHT22;16960;49.404;8.248;2023-04-24T08:38:19;21.50;38.40
30148;DHT22;16960;49.404;8.248;2023-04-24T08:40:47;21.60;38.40
30148;DHT22;16960;49.404;8.248;2023-04-24T08:43:15;21.60;38.50
30148;DHT22;16960;49.404;8.248;2023-04-24T08:45:43;21.60;38.40
30148;DHT22;16960;49.404;8.248;2023-04-24T08:48:10;21.60;38.50
30148;DHT22;16960;49.404;8.248;2023-04-24T08:50:40;21.60;38.60
30148;DHT22;16960;49.404;8.248;2023-04-24T08:53:09;21.60;38.50
30148;DHT22;16960;49.404;8.248;2023-04-24T08:55:36;21.60;38.50
30148;DHT22;16960;49.404;8.248;2023-04-24T08:58:04;21.60;38.40
30148;DHT22;16960;49.404;8.248;2023-04-24T09:00:31;21.60;38.00
30148;DHT22;16960;49.404;8.248;2023-04-24T09:03:01;21.50;38.10
30148;DHT22;16960;49.404;8.248;2023-04-24T09:05:29;21.50;38.20
30148;DHT22;16960;49.404;8.248;2023-04-24T09:07:59;21.50;38.30
30148;DHT22;16960;49.404;8.248;2023-04-24T09:10:28;21.60;38.30
30148;DHT22;16960;49.404;8.248;2023-04-24T09:12:59;21.60;38.40
30148;DHT22;16960;49.404;8.248;2023-04-24T09:15:28;21.60;38.30
30148;DHT22;16960;49.404;8.248;2023-04-24T09:17:55;21.60;38.30
30148;DHT22;16960;49.404;8.248;2023-04-24T09:20:23;21.60;38.40
30148;DHT22;16960;49.404;8.248;2023-04-24T09:22:53;21.60;38.40
30148;DHT22;16960;49.404;8.248;2023-04-24T09:25:22;21.60;38.30
30148;DHT22;16960;49.404;8.248;2023-04-24T09:27:53;21.60;38.40
30148;DHT22;16960;49.404;8.248;2023-04-24T09:30:21;21.70;38.40
30148;DHT22;16960;49.404;8.248;2023-04-24T09:32:49;21.70;38.40
30148;DHT22;16960;49.404;8.248;2023-04-24T09:35:16;21.70;38.40
30148;DHT22;16960;49.404;8.248;2023-04-24T09:37:44;21.70;38.40
30148;DHT22;16960;49.404;8.248;2023-04-24T09:40:16;21.70;38.70
30148;DHT22;16960;49.404;8.248;2023-04-24T09:42:52;21.70;38.40
30148;DHT22;16960;49.404;8.248;2023-04-24T09:45:20;21.70;38.40
30148;DHT22;16960;49.404;8.248;2023-04-24T09:47:51;21.70;38.40
30148;DHT22;16960;49.404;8.248;2023-04-24T09:50:18;21.80;38.40
30148;DHT22;16960;49.404;8.248;2023-04-24T09:52:47;21.80;38.30
30148;DHT22;16960;49.404;8.248;2023-04-24T09:55:22;21.80;38.30
30148;DHT22;16960;49.404;8.248;2023-04-24T09:57:52;21.80;38.30
30148;DHT22;16960;49.404;8.248;2023-04-24T10:00:24;21.80;38.20
30148;DHT22;16960;49.404;8.248;2023-04-24T10:02:56;21.80;38.20
30148;DHT22;16960;49.404;8.248;2023-04-24T10:05:24;21.80;38.20
30148;DHT22;16960;49.404;8.248;2023-04-24T10:07:52;21.80;38.10
30148;DHT22;16960;49.404;8.248;2023-04-24T10:10:22;21.80;38.10
30148;DHT22;16960;49.404;8.248;2023-04-24T10:12:51;21.80;38.10
30148;DHT22;16960;49.404;8.248;2023-04-24T10:15:19;21.80;38.10
30148;DHT22;16960;49.404;8.248;2023-04-24T10:17:48;21.80;38.10
30148;DHT22;16960;49.404;8.248;2023-04-24T10:20:19;21.80;38.10
30148;DHT22;16960;49.404;8.248;2023-04-24T10:22:48;21.80;38.10
30148;DHT22;16960;49.404;8.248;2023-04-24T10:25:18;21.80;38.10
30148;DHT22;16960;49.404;8.248;2023-04-24T10:27:46;21.80;38.10
30148;DHT22;16960;49.404;8.248;2023-04-24T10:30:15;21.80;38.10
30148;DHT22;16960;49.404;8.248;2023-04-24T10:32:42;21.80;38.10
30148;DHT22;16960;49.404;8.248;2023-04-24T10:35:11;21.80;38.10
30148;DHT22;16960;49.404;8.248;2023-04-24T10:37:42;21.90;38.20
30148;DHT22;16960;49.404;8.248;2023-04-24T10:40:11;21.90;38.20
30148;DHT22;16960;49.404;8.248;2023-04-24T10:42:40;21.90;38.20
30148;DHT22;16960;49.404;8.248;2023-04-24T10:45:17;21.90;38.20
30148;DHT22;16960;49.404;8.248;2023-04-24T10:47:56;21.90;38.20
30148;DHT22;16960;49.404;8.248;2023-04-24T10:50:26;21.90;38.20
30148;DHT22;16960;49.404;8.248;2023-04-24T10:52:53;21.90;38.10
30148;DHT22;16960;49.404;8.248;2023-04-24T10:55:42;21.90;38.10
30148;DHT22;16960;49.404;8.248;2023-04-24T10:58:09;21.90;38.10
30148;DHT22;16960;49.404;8.248;2023-04-24T11:00:40;22.00;38.10
30148;DHT22;16960;49.404;8.248;2023-04-24T11:03:12;22.00;38.10
30148;DHT22;16960;49.404;8.248;2023-04-24T11:06:08;22.00;38.00
30148;DHT22;16960;49.404;8.248;2023-04-24T11:08:40;22.00;38.00
30148;DHT22;16960;49.404;8.248;2023-04-24T11:11:10;22.10;38.10
30148;DHT22;16960;49.404;8.248;2023-04-24T11:14:06;22.10;38.10
30148;DHT22;16960;49.404;8.248;2023-04-24T11:16:37;22.10;38.00
30148;DHT22;16960;49.404;8.248;2023-04-24T11:19:07;22.10;38.00
30148;DHT22;16960;49.404;8.248;2023-04-24T11:21:42;22.20;37.90
30148;DHT22;16960;49.404;8.248;2023-04-24T11:24:26;22.20;37.90
30148;DHT22;16960;49.404;8.248;2023-04-24T11:26:54;22.30;37.90
30148;DHT22;16960;49.404;8.248;2023-04-24T11:29:22;22.20;37.80
30148;DHT22;16960;49.404;8.248;2023-04-24T11:31:51;22.30;37.80
30148;DHT22;16960;49.404;8.248;2023-04-24T11:34:18;22.30;37.80
30148;DHT22;16960;49.404;8.248;2023-04-24T11:36:46;22.40;37.70
30148;DHT22;16960;49.404;8.248;2023-04-24T11:39:14;22.40;37.60
30148;DHT22;16960;49.404;8.248;2023-04-24T11:41:41;22.40;37.50
30148;DHT22;16960;49.404;8.248;2023-04-24T11:44:09;22.50;37.60
30148;DHT22;16960;49.404;8.248;2023-04-24T11:46:37;22.50;37.70
30148;DHT22;16960;49.404;8.248;2023-04-24T11:49:07;22.50;37.70
30148;DHT22;16960;49.404;8.248;2023-04-24T11:51:34;22.50;37.70
30148;DHT22;16960;49.404;8.248;2023-04-24T11:54:01;22.60;37.70
30148;DHT22;16960;49.404;8.248;2023-04-24T11:56:28;22.60;37.60
30148;DHT22;16960;49.404;8.248;2023-04-24T11:58:55;22.60;37.60
30148;DHT22;16960;49.404;8.248;2023-04-24T12:01:22;22.70;37.70
30148;DHT22;16960;49.404;8.248;2023-04-24T12:03:50;22.70;37.70
30148;DHT22;16960;49.404;8.248;2023-04-24T12:06:19;22.70;37.50
30148;DHT22;16960;49.404;8.248;2023-04-24T12:08:46;22.80;37.50
30148;DHT22;16960;49.404;8.248;2023-04-24T12:11:15;22.80;37.60
30148;DHT22;16960;49.404;8.248;2023-04-24T12:13:44;22.80;37.50
30148;DHT22;16960;49.404;8.248;2023-04-24T12:16:11;22.90;37.50
30148;DHT22;16960;49.404;8.248;2023-04-24T12:18:42;22.90;37.40
30148;DHT22;16960;49.404;8.248;2023-04-24T12:21:21;22.90;37.30
30148;DHT22;16960;49.404;8.248;2023-04-24T12:23:54;22.90;37.30
30148;DHT22;16960;49.404;8.248;2023-04-24T12:26:21;22.90;37.30
30148;DHT22;16960;49.404;8.248;2023-04-24T12:28:49;23.00;37.30
30148;DHT22;16960;49.404;8.248;2023-04-24T12:31:17;23.00;37.20
30148;DHT22;16960;49.404;8.248;2023-04-24T12:33:44;22.90;36.50
30148;DHT22;16960;49.404;8.248;2023-04-24T12:36:11;22.90;36.90
30148;DHT22;16960;49.404;8.248;2023-04-24T12:38:44;22.90;37.10
30148;DHT22;16960;49.404;8.248;2023-04-24T12:41:13;23.00;37.10
30148;DHT22;16960;49.404;8.248;2023-04-24T12:43:51;23.00;37.10
30148;DHT22;16960;49.404;8.248;2023-04-24T12:46:19;23.00;37.00
30148;DHT22;16960;49.404;8.248;2023-04-24T12:48:46;23.10;37.00
30148;DHT22;16960;49.404;8.248;2023-04-24T12:51:12;23.10;37.00
30148;DHT22;16960;49.404;8.248;2023-04-24T12:53:41;23.20;37.00
30148;DHT22;16960;49.404;8.248;2023-04-24T12:56:08;23.10;37.00
30148;DHT22;16960;49.404;8.248;2023-04-24T12:58:35;23.20;36.90
30148;DHT22;16960;49.404;8.248;2023-04-24T13:01:02;23.20;36.90
30148;DHT22;16960;49.404;8.248;2023-04-24T13:03:28;23.20;36.80
30148;DHT22;16960;49.404;8.248;2023-04-24T13:05:55;23.20;36.80
30148;DHT22;16960;49.404;8.248;2023-04-24T13:08:22;23.20;36.80
30148;DHT22;16960;49.404;8.248;2023-04-24T13:10:51;23.20;36.80
30148;DHT22;16960;49.404;8.248;2023-04-24T13:13:19;23.20;36.60
30148;DHT22;16960;49.404;8.248;2023-04-24T13:15:46;23.20;36.60
30148;DHT22;16960;49.404;8.248;2023-04-24T13:18:13;23.30;36.70
30148;DHT22;16960;49.404;8.248;2023-04-24T13:20:40;23.30;36.70
30148;DHT22;16960;49.404;8.248;2023-04-24T13:23:07;23.30;36.70
30148;DHT22;16960;49.404;8.248;2023-04-24T13:25:35;23.30;36.70
30148;DHT22;16960;49.404;8.248;2023-04-24T13:28:04;23.30;36.60
30148;DHT22;16960;49.404;8.248;2023-04-24T13:30:31;23.40;36.60
30148;DHT22;16960;49.404;8.248;2023-04-24T13:32:58;23.40;36.60
30148;DHT22;16960;49.404;8.248;2023-04-24T13:35:25;23.40;36.60
30148;DHT22;16960;49.404;8.248;2023-04-24T13:37:52;23.40;36.50
30148;DHT22;16960;49.404;8.248;2023-04-24T13:40:19;23.40;36.10
30148;DHT22;16960;49.404;8.248;2023-04-24T13:42:46;23.40;36.30
30148;DHT22;16960;49.404;8.248;2023-04-24T13:45:15;23.40;36.50
30148;DHT22;16960;49.404;8.248;2023-04-24T13:47:42;23.40;36.50
30148;DHT22;16960;49.404;8.248;2023-04-24T13:50:09;23.30;36.50
30148;DHT22;16960;49.404;8.248;2023-04-24T13:52:37;23.40;36.50
30148;DHT22;16960;49.404;8.248;2023-04-24T13:55:05;23.40;36.50
30148;DHT22;16960;49.404;8.248;2023-04-24T13:57:32;23.40;36.40
30148;DHT22;16960;49.404;8.248;2023-04-24T13:59:59;23.40;36.40
30148;DHT22;16960;49.404;8.248;2023-04-24T14:02:30;23.40;36.40
30148;DHT22;16960;49.404;8.248;2023-04-24T14:04:57;23.40;36.40
30148;DHT22;16960;49.404;8.248;2023-04-24T14:07:24;23.40;36.40
30148;DHT22;16960;49.404;8.248;2023-04-24T14:09:51;23.40;36.30
30148;DHT22;16960;49.404;8.248;2023-04-24T14:12:18;23.40;36.70
30148;DHT22;16960;49.404;8.248;2023-04-24T14:14:46;23.40;36.40
30148;DHT22;16960;49.404;8.248;2023-04-24T14:17:14;23.40;36.50
30148;DHT22;16960;49.404;8.248;2023-04-24T14:19:42;23.40;36.50
30148;DHT22;16960;49.404;8.248;2023-04-24T14:22:09;23.40;36.40
30148;DHT22;16960;49.404;8.248;2023-04-24T14:24:36;23.40;36.30
30148;DHT22;16960;49.404;8.248;2023-04-24T14:27:03;23.40;36.30
30148;DHT22;16960;49.404;8.248;2023-04-24T14:29:31;23.40;36.10
30148;DHT22;16960;49.404;8.248;2023-04-24T14:31:58;23.40;36.30
30148;DHT22;16960;49.404;8.248;2023-04-24T14:34:25;23.40;36.50
30148;DHT22;16960;49.404;8.248;2023-04-24T14:36:53;23.50;36.70
30148;DHT22;16960;49.404;8.248;2023-04-24T14:39:20;23.40;36.60
30148;DHT22;16960;49.404;8.248;2023-04-24T14:41:47;23.50;36.70
30148;DHT22;16960;49.404;8.248;2023-04-24T14:44:14;23.50;36.60
30148;DHT22;16960;49.404;8.248;2023-04-24T14:46:41;23.50;36.50
30148;DHT22;16960;49.404;8.248;2023-04-24T14:49:08;23.60;36.50
30148;DHT22;16960;49.404;8.248;2023-04-24T14:51:37;23.60;36.50
30148;DHT22;16960;49.404;8.248;2023-04-24T14:54:05;23.50;36.10
30148;DHT22;16960;49.404;8.248;2023-04-24T14:56:33;23.50;36.50
30148;DHT22;16960;49.404;8.248;2023-04-24T14:59:00;23.50;36.50
30148;DHT22;16960;49.404;8.248;2023-04-24T15:01:27;23.50;36.50
30148;DHT22;16960;49.404;8.248;2023-04-24T15:03:54;23.50;36.60
30148;DHT22;16960;49.404;8.248;2023-04-24T15:06:21;23.50;36.60
30148;DHT22;16960;49.404;8.248;2023-04-24T15:08:48;23.50;36.60
30148;DHT22;16960;49.404;8.248;2023-04-24T15:11:17;23.50;36.60
30148;DHT22;16960;49.404;8.248;2023-04-24T15:13:44;23.50;36.60
30148;DHT22;16960;49.404;8.248;2023-04-24T15:16:11;23.50;36.70
30148;DHT22;16960;49.404;8.248;2023-04-24T15:18:38;23.50;36.70
30148;DHT22;16960;49.404;8.248;2023-04-24T15:21:05;23.50;36.80
30148;DHT22;16960;49.404;8.248;2023-04-24T15:23:32;23.50;36.70
30148;DHT22;16960;49.404;8.248;2023-04-24T15:25:59;23.50;36.80
30148;DHT22;16960;49.404;8.248;2023-04-24T15:28:28;23.50;36.80
30148;DHT22;16960;49.404;8.248;2023-04-24T15:30:55;23.50;36.80
30148;DHT22;16960;49.404;8.248;2023-04-24T15:33:22;23.60;36.90
30148;DHT22;16960;49.404;8.248;2023-04-24T15:35:51;23.60;36.90